Sea Dreamer — CRA5030 — position and weather

sailwx.info

Track history (hours):
 
Tides and Currents Weather Stations Pressure Air Temp Water Temp Dewpoint Dewpoint Depression Visibility Wind Speed Wind Dir Waves Ship Positions

Sea Dreamer

Last reported at 2017-Aug-18 17:56 UTC. Time now 2017-Sep-25 19:06 UTC.
Position N 38°42' W 009°11'.
Warning: this ship's position is 38 days out of date.

Length 12 m.

Type: Sailing vessel. MMSI: 263922260.

Date/timePositionNaut miles runAvg speedWind from/ knotsBaromVisibWave heightAir tempDewpointWater temp
2017-Aug-18 17:56N 38°42' W 009°11'3 4.8
2017-Aug-18 17:21N 38°41' W 009°14'2 5.1
2017-Aug-18 16:58N 38°41' W 009°17'2 3.9
2017-Aug-18 16:25N 38°40' W 009°19'2 3.9
2017-Aug-18 15:58N 38°38' W 009°18'2 3.9
2017-Aug-18 15:27N 38°36' W 009°17'2 4.1
2017-Aug-18 15:00N 38°35' W 009°15'2 4.5
2017-Aug-18 14:28N 38°33' W 009°15'11 2.9
2017-Aug-18 10:53N 38°25' W 009°06'2 5.8
2017-Aug-18 10:30N 38°26' W 009°03'  
2017-Aug-14 13:58N 38°30' W 008°55'4 5.3
2017-Aug-14 13:13N 38°27' W 008°59'1 5.3
2017-Aug-14 13:00N 38°27' W 008°60'3 5.2
2017-Aug-14 12:30N 38°26' W 009°03'3 5.2
2017-Aug-14 11:59N 38°25' W 009°06'  
Track history (hours):
 
Tides and Currents Weather Stations Pressure Air Temp Water Temp Dewpoint Dewpoint Depression Visibility Wind Speed Wind Dir Waves Ship Positions

Sea Dreamer

Last reported at 2017-Aug-18 17:56 UTC. Time now 2017-Sep-25 19:06 UTC.
Position N 38°42' W 009°11'.
Warning: this ship's position is 38 days out of date.

Length 12 m.

Type: Sailing vessel. MMSI: 263922260.

Date/timePositionNaut miles runAvg speedWind from/ knotsBaromVisibWave heightAir tempDewpointWater temp
2017-Aug-18 17:56N 38°42' W 009°11'3 4.8
2017-Aug-18 17:21N 38°41' W 009°14'2 5.1
2017-Aug-18 16:58N 38°41' W 009°17'2 3.9
2017-Aug-18 16:25N 38°40' W 009°19'2 3.9
2017-Aug-18 15:58N 38°38' W 009°18'2 3.9
2017-Aug-18 15:27N 38°36' W 009°17'2 4.1
2017-Aug-18 15:00N 38°35' W 009°15'2 4.5
2017-Aug-18 14:28N 38°33' W 009°15'11 2.9
2017-Aug-18 10:53N 38°25' W 009°06'2 5.8
2017-Aug-18 10:30N 38°26' W 009°03'  
2017-Aug-14 13:58N 38°30' W 008°55'4 5.3
2017-Aug-14 13:13N 38°27' W 008°59'1 5.3
2017-Aug-14 13:00N 38°27' W 008°60'3 5.2
2017-Aug-14 12:30N 38°26' W 009°03'3 5.2
2017-Aug-14 11:59N 38°25' W 009°06'  

Dump ship's entire track history